createdAt,value
2022-11-12T00:00:49.629Z,11.93
2022-11-12T00:03:16.517Z,11.93
2022-11-12T00:05:45.194Z,11.91
2022-11-12T00:08:11.680Z,11.90
2022-11-12T00:10:38.338Z,11.88
2022-11-12T00:13:04.870Z,11.87
2022-11-12T00:15:31.521Z,11.84
2022-11-12T00:17:57.982Z,11.83
2022-11-12T00:20:24.563Z,11.83
2022-11-12T00:22:51.342Z,11.82
2022-11-12T00:25:18.029Z,11.82
2022-11-12T00:27:44.623Z,11.82
2022-11-12T00:30:11.446Z,11.81
2022-11-12T00:32:38.442Z,11.82
2022-11-12T00:35:06.864Z,11.81
2022-11-12T00:37:35.258Z,11.81
2022-11-12T00:40:01.603Z,11.82
2022-11-12T00:42:28.016Z,11.83
2022-11-12T00:44:54.496Z,11.84
2022-11-12T00:47:21.044Z,11.84
2022-11-12T00:49:47.608Z,11.84
2022-11-12T00:52:14.149Z,11.84
2022-11-12T00:54:40.530Z,11.82
2022-11-12T00:57:06.996Z,11.81
2022-11-12T00:59:33.521Z,11.79
2022-11-12T01:01:59.989Z,11.77
2022-11-12T01:04:26.464Z,11.74
2022-11-12T01:06:53.027Z,11.72
2022-11-12T01:09:19.629Z,11.72
2022-11-12T01:11:46.109Z,11.72
2022-11-12T01:14:12.801Z,11.73
2022-11-12T01:16:40.465Z,11.75
2022-11-12T01:19:09.883Z,11.77
2022-11-12T01:21:42.591Z,11.78
2022-11-12T01:24:09.553Z,11.83
2022-11-12T01:26:36.787Z,11.86
2022-11-12T01:29:04.668Z,11.89
2022-11-12T01:31:36.172Z,11.90
2022-11-12T01:34:06.413Z,11.91
2022-11-12T01:36:36.550Z,11.91
2022-11-12T01:39:04.780Z,11.92
2022-11-12T01:41:33.935Z,11.90
2022-11-12T01:44:10.615Z,11.88
2022-11-12T01:47:00.046Z,11.85
2022-11-12T01:49:55.123Z,11.83
2022-11-12T01:52:23.519Z,11.86
2022-11-12T01:54:53.683Z,11.82
2022-11-12T01:57:30.643Z,11.78
2022-11-12T02:00:04.600Z,11.76
2022-11-12T02:02:31.225Z,11.74
2022-11-12T02:04:58.555Z,11.68
2022-11-12T02:07:25.872Z,11.66
2022-11-12T02:09:53.535Z,11.62
2022-11-12T02:12:43.608Z,11.57
2022-11-12T02:15:10.284Z,11.55
2022-11-12T02:17:36.865Z,11.50
2022-11-12T02:20:03.956Z,11.46
2022-11-12T02:22:30.419Z,11.44
2022-11-12T02:24:56.991Z,11.39
2022-11-12T02:27:24.196Z,11.34
2022-11-12T02:29:50.696Z,11.31
2022-11-12T02:32:17.257Z,11.29
2022-11-12T02:34:43.993Z,11.26
2022-11-12T02:37:10.503Z,11.23
2022-11-12T02:39:37.133Z,11.21
2022-11-12T02:42:04.092Z,11.20
2022-11-12T02:44:31.179Z,11.17
2022-11-12T02:46:57.672Z,11.17
2022-11-12T02:49:24.156Z,11.14
2022-11-12T02:51:50.612Z,11.12
2022-11-12T02:54:17.083Z,11.08
2022-11-12T02:56:43.588Z,11.06
2022-11-12T02:59:10.020Z,11.04
2022-11-12T03:01:36.465Z,11.02
2022-11-12T03:04:03.295Z,11.01
2022-11-12T03:06:29.855Z,10.99
2022-11-12T03:08:56.401Z,10.96
2022-11-12T03:11:22.998Z,10.93
2022-11-12T03:13:49.538Z,10.90
2022-11-12T03:16:16.149Z,10.88
2022-11-12T03:18:42.628Z,10.86
2022-11-12T03:21:09.217Z,10.82
2022-11-12T03:23:35.690Z,10.81
2022-11-12T03:26:03.923Z,10.79
2022-11-12T03:28:32.586Z,10.75
2022-11-12T03:31:00.960Z,10.74
2022-11-12T03:33:27.507Z,10.71
2022-11-12T03:35:54.307Z,10.68
2022-11-12T03:38:20.847Z,10.65
2022-11-12T03:40:47.368Z,10.61
2022-11-12T03:43:13.947Z,10.59
2022-11-12T03:45:40.483Z,10.57
2022-11-12T03:48:07.179Z,10.54
2022-11-12T03:50:33.632Z,10.52
2022-11-12T03:53:00.504Z,10.50
2022-11-12T03:55:29.329Z,10.47
2022-11-12T03:57:56.685Z,10.43
2022-11-12T04:00:25.080Z,10.40
2022-11-12T04:02:51.613Z,10.37
2022-11-12T04:05:37.073Z,10.35
2022-11-12T04:08:24.723Z,10.30
2022-11-12T04:10:52.532Z,10.29
2022-11-12T04:13:28.004Z,10.25
2022-11-12T04:16:18.642Z,10.21
2022-11-12T04:19:06.039Z,10.19
2022-11-12T04:21:55.595Z,10.16
2022-11-12T04:24:47.274Z,10.11
2022-11-12T04:27:22.587Z,10.10
2022-11-12T04:30:08.585Z,10.07
2022-11-12T04:32:37.949Z,10.03
2022-11-12T04:35:05.543Z,10.02
2022-11-12T04:37:44.584Z,10.00
2022-11-12T04:40:32.515Z,9.98
2022-11-12T04:43:17.978Z,9.97
2022-11-12T04:45:47.048Z,9.95
2022-11-12T04:48:13.820Z,9.96
2022-11-12T04:50:41.751Z,9.94
2022-11-12T04:53:08.367Z,9.95
2022-11-12T04:55:34.939Z,9.95
2022-11-12T04:58:01.448Z,9.96
2022-11-12T05:00:28.628Z,9.96
2022-11-12T05:02:55.127Z,9.96
2022-11-12T05:05:21.688Z,9.97
2022-11-12T05:07:48.249Z,9.97
2022-11-12T05:10:15.060Z,9.98
2022-11-12T05:12:42.570Z,9.98
2022-11-12T05:15:09.878Z,9.98
2022-11-12T05:17:36.373Z,9.99
2022-11-12T05:20:02.953Z,10.00
2022-11-12T05:22:44.020Z,10.00
2022-11-12T05:25:14.627Z,10.01
2022-11-12T05:27:41.249Z,10.01
2022-11-12T05:30:08.363Z,10.00
2022-11-12T05:32:34.861Z,10.00
2022-11-12T05:35:01.365Z,10.00
2022-11-12T05:37:27.878Z,10.00
2022-11-12T05:39:54.369Z,10.00
2022-11-12T05:42:20.870Z,9.99
2022-11-12T05:44:47.365Z,9.98
2022-11-12T05:47:13.861Z,9.97
2022-11-12T05:49:40.339Z,9.96
2022-11-12T05:52:06.893Z,9.95
2022-11-12T05:54:33.507Z,9.93
2022-11-12T05:57:00.145Z,9.90
2022-11-12T05:59:26.603Z,9.88
2022-11-12T06:01:53.273Z,9.87
2022-11-12T06:04:19.750Z,9.85
2022-11-12T06:06:46.394Z,9.83
2022-11-12T06:09:12.955Z,9.81
2022-11-12T06:11:39.790Z,9.77
2022-11-12T06:14:06.343Z,9.74
2022-11-12T06:16:33.502Z,9.71
2022-11-12T06:19:00.275Z,9.69
2022-11-12T06:21:27.953Z,9.67
2022-11-12T06:23:57.832Z,9.64
2022-11-12T06:26:29.579Z,9.62
2022-11-12T06:28:56.373Z,9.63
2022-11-12T06:31:23.618Z,9.64
2022-11-12T06:33:50.603Z,9.64
2022-11-12T06:36:20.002Z,9.64
2022-11-12T06:38:46.940Z,9.65
2022-11-12T06:41:14.516Z,9.64
2022-11-12T06:43:41.811Z,9.63
2022-11-12T06:46:12.767Z,9.60
2022-11-12T06:48:39.902Z,9.61
2022-11-12T06:51:12.753Z,9.60
2022-11-12T06:53:39.290Z,9.60
2022-11-12T06:56:07.121Z,9.60
2022-11-12T06:58:34.409Z,9.57
2022-11-12T07:01:11.898Z,9.52
2022-11-12T07:03:40.135Z,9.52
2022-11-12T07:06:09.904Z,9.47
2022-11-12T07:08:36.925Z,9.44
2022-11-12T07:11:04.085Z,9.41
2022-11-12T07:13:32.568Z,9.39
2022-11-12T07:16:00.695Z,9.38
2022-11-12T07:18:28.499Z,9.36
2022-11-12T07:21:03.761Z,9.35
2022-11-12T07:23:32.521Z,9.36
2022-11-12T07:26:04.111Z,9.37
2022-11-12T07:28:31.188Z,9.40
2022-11-12T07:30:59.685Z,9.41
2022-11-12T07:33:27.489Z,9.43
2022-11-12T07:36:01.974Z,9.44
2022-11-12T07:38:30.275Z,9.46
2022-11-12T07:41:05.822Z,9.47
2022-11-12T07:43:34.016Z,9.50
2022-11-12T07:46:10.271Z,9.53
2022-11-12T07:48:38.059Z,9.55
2022-11-12T07:51:19.507Z,9.56
2022-11-12T07:53:46.958Z,9.59
2022-11-12T07:56:18.995Z,9.61
2022-11-12T07:58:46.350Z,9.65
2022-11-12T08:01:35.670Z,9.67
2022-11-12T08:04:04.600Z,9.71
2022-11-12T08:06:32.271Z,9.75
2022-11-12T08:09:01.187Z,9.79
2022-11-12T08:11:28.148Z,9.83
2022-11-12T08:13:54.663Z,9.88
2022-11-12T08:16:21.404Z,9.92
2022-11-12T08:18:48.292Z,9.98
2022-11-12T08:21:17.836Z,10.03
2022-11-12T08:23:45.218Z,10.11
2022-11-12T08:26:14.841Z,10.17
2022-11-12T08:28:41.796Z,10.25
2022-11-12T08:31:11.000Z,10.29
2022-11-12T08:33:38.033Z,10.37
2022-11-12T08:36:11.638Z,10.40
2022-11-12T08:38:39.269Z,10.48
2022-11-12T08:41:11.842Z,10.53
2022-11-12T08:43:40.049Z,10.60
2022-11-12T08:46:07.240Z,10.67
2022-11-12T08:48:34.570Z,10.71
2022-11-12T08:51:03.147Z,10.76
2022-11-12T08:53:29.703Z,10.82
2022-11-12T08:55:57.127Z,10.88
2022-11-12T08:58:24.925Z,10.94
2022-11-12T09:00:52.762Z,11.01
2022-11-12T09:03:22.175Z,11.06
2022-11-12T09:05:51.239Z,11.16
2022-11-12T09:08:20.242Z,11.23
2022-11-12T09:10:47.637Z,11.31
2022-11-12T09:13:14.515Z,11.38
2022-11-12T09:15:41.278Z,11.44
2022-11-12T09:18:12.395Z,11.48
2022-11-12T09:20:38.955Z,11.56
2022-11-12T09:23:14.050Z,11.58
2022-11-12T09:25:41.435Z,11.66
2022-11-12T09:28:12.139Z,11.69
2022-11-12T09:30:43.152Z,11.75
2022-11-12T09:33:09.724Z,11.80
2022-11-12T09:35:37.095Z,11.86
2022-11-12T09:38:04.016Z,11.90
2022-11-12T09:40:41.071Z,11.93
2022-11-12T09:43:31.768Z,11.98
2022-11-12T09:46:26.808Z,12.05
2022-11-12T09:49:02.490Z,12.12
2022-11-12T09:51:34.373Z,12.17
2022-11-12T09:54:13.546Z,12.21
2022-11-12T09:56:40.240Z,12.29
2022-11-12T10:01:54.711Z,12.39
2022-11-12T10:04:33.934Z,12.50
2022-11-12T10:07:21.089Z,12.57
2022-11-12T10:10:22.358Z,12.66
2022-11-12T10:13:01.242Z,12.77
2022-11-12T10:15:46.418Z,12.90
2022-11-12T10:18:22.120Z,13.00
2022-11-12T10:21:06.949Z,13.13
2022-11-12T10:23:46.088Z,13.22
2022-11-12T10:26:16.412Z,13.38
2022-11-12T10:28:51.353Z,13.52
2022-11-12T10:31:20.319Z,13.67
2022-11-12T10:33:47.569Z,13.84
2022-11-12T10:36:33.639Z,13.97
2022-11-12T10:39:00.194Z,14.18
2022-11-12T10:41:32.323Z,14.33
2022-11-12T10:44:02.970Z,14.51
2022-11-12T10:46:38.853Z,14.66
2022-11-12T10:49:21.575Z,14.87
2022-11-12T10:51:56.270Z,15.07
2022-11-12T10:54:35.122Z,15.28
2022-11-12T10:57:21.104Z,15.51
2022-11-12T10:59:47.694Z,15.80
2022-11-12T11:02:17.827Z,16.08
2022-11-12T11:04:44.844Z,16.44
2022-11-12T11:07:25.412Z,16.89
2022-11-12T11:10:00.330Z,17.36
2022-11-12T11:12:26.915Z,17.79
2022-11-12T11:15:08.255Z,18.07
2022-11-12T11:17:35.322Z,18.36
2022-11-12T11:20:02.959Z,18.55
2022-11-12T11:22:42.503Z,18.66
2022-11-12T11:25:21.151Z,18.80
2022-11-12T11:28:00.691Z,18.92
2022-11-12T11:30:27.612Z,19.05
2022-11-12T11:32:57.204Z,19.13
2022-11-12T11:35:35.556Z,19.22
2022-11-12T11:38:29.941Z,19.33
2022-11-12T11:41:34.961Z,19.44
2022-11-12T11:44:26.582Z,19.59
2022-11-12T11:47:04.452Z,19.90
2022-11-12T11:50:15.498Z,20.40
2022-11-12T11:52:52.233Z,21.26
2022-11-12T11:55:44.654Z,22.08
2022-11-12T11:58:40.218Z,23.07
2022-11-12T12:01:26.901Z,24.04
2022-11-12T12:04:03.863Z,24.83
2022-11-12T12:06:35.079Z,25.49
2022-11-12T12:09:08.579Z,26.04
2022-11-12T12:12:04.337Z,26.58
2022-11-12T12:15:03.727Z,27.12
2022-11-12T12:17:49.097Z,27.64
2022-11-12T12:20:45.080Z,28.05
2022-11-12T12:23:33.578Z,28.42
2022-11-12T12:26:02.900Z,28.68
2022-11-12T12:28:53.862Z,28.62
2022-11-12T12:31:26.549Z,28.47
2022-11-12T12:34:02.780Z,28.18
2022-11-12T12:36:37.372Z,27.73
2022-11-12T12:39:20.408Z,27.16
2022-11-12T12:41:51.803Z,26.52
2022-11-12T12:44:18.355Z,25.99
2022-11-12T12:46:58.552Z,25.34
2022-11-12T12:49:32.429Z,24.84
2022-11-12T12:51:59.546Z,24.43
2022-11-12T12:54:34.781Z,23.93
2022-11-12T12:57:03.873Z,23.59
2022-11-12T12:59:30.789Z,23.26
2022-11-12T13:02:03.030Z,22.90
2022-11-12T13:04:52.954Z,22.58
2022-11-12T13:07:40.566Z,22.30
2022-11-12T13:10:41.510Z,22.04
2022-11-12T13:13:20.807Z,21.82
2022-11-12T13:15:48.183Z,21.68
2022-11-12T13:18:39.723Z,21.44
2022-11-12T13:21:12.805Z,21.35
2022-11-12T13:24:09.408Z,21.26
2022-11-12T13:26:47.973Z,21.24
2022-11-12T13:29:19.173Z,21.24
2022-11-12T13:31:45.748Z,21.21
2022-11-12T13:34:33.521Z,21.14
2022-11-12T13:37:04.945Z,21.04
2022-11-12T13:39:38.275Z,21.00
2022-11-12T13:42:32.403Z,21.01
2022-11-12T13:45:00.526Z,21.11
2022-11-12T13:47:29.282Z,21.20
2022-11-12T13:50:01.170Z,21.30
2022-11-12T13:52:29.001Z,21.45
2022-11-12T13:55:17.844Z,21.61
2022-11-12T13:57:54.844Z,21.87
2022-11-12T14:00:29.125Z,22.08
2022-11-12T14:03:00.169Z,22.26
2022-11-12T14:05:29.493Z,22.39
2022-11-12T14:08:11.936Z,22.46
2022-11-12T14:11:04.253Z,22.46
2022-11-12T14:14:15.154Z,22.40
2022-11-12T14:17:01.673Z,22.24
2022-11-12T14:19:49.821Z,22.08
2022-11-12T14:22:18.825Z,21.97
2022-11-12T14:24:48.173Z,21.84
2022-11-12T14:27:33.936Z,21.69
2022-11-12T14:30:26.902Z,21.65
2022-11-12T14:32:59.146Z,21.69
2022-11-12T14:35:28.621Z,21.67
2022-11-12T14:38:05.036Z,21.53
2022-11-12T14:40:44.377Z,21.37
2022-11-12T14:43:29.459Z,21.17
2022-11-12T14:45:57.914Z,20.99
2022-11-12T14:48:24.994Z,20.72
2022-11-12T14:51:01.815Z,20.44
2022-11-12T14:53:41.352Z,20.12
2022-11-12T14:56:12.645Z,19.89
2022-11-12T14:58:39.902Z,19.64
2022-11-12T15:02:20.851Z,19.31
2022-11-12T15:04:24.831Z,19.09
2022-11-12T15:06:55.811Z,18.88
2022-11-12T15:09:38.571Z,18.64
2022-11-12T15:12:14.248Z,18.46
2022-11-12T15:14:40.867Z,18.33
2022-11-12T15:17:21.960Z,18.17
2022-11-12T15:19:48.617Z,18.03
2022-11-12T15:22:22.465Z,17.88
2022-11-12T15:24:49.577Z,17.80
2022-11-12T15:27:38.262Z,17.62
2022-11-12T15:30:19.387Z,17.50
2022-11-12T15:32:46.468Z,17.41
2022-11-12T15:35:44.013Z,17.20
2022-11-12T15:38:22.205Z,17.08
2022-11-12T15:40:57.271Z,16.97
2022-11-12T15:43:36.384Z,16.81
2022-11-12T15:46:03.235Z,16.73
2022-11-12T15:48:29.809Z,16.63
2022-11-12T15:50:56.266Z,16.53
2022-11-12T15:53:22.715Z,16.42
2022-11-12T15:55:50.007Z,16.31
2022-11-12T15:58:32.123Z,16.15
2022-11-12T16:00:58.763Z,16.07
2022-11-12T16:03:25.923Z,15.94
2022-11-12T16:05:52.535Z,15.80
2022-11-12T16:08:18.854Z,15.64
2022-11-12T16:10:46.510Z,15.49
2022-11-12T16:13:16.586Z,15.33
2022-11-12T16:15:43.038Z,15.20
2022-11-12T16:18:12.576Z,15.06
2022-11-12T16:20:39.034Z,14.96
2022-11-12T16:23:05.395Z,14.85
2022-11-12T16:25:34.291Z,14.79
2022-11-12T16:28:01.558Z,14.71
2022-11-12T16:30:31.917Z,14.63
2022-11-12T16:32:59.662Z,14.56
2022-11-12T16:35:27.752Z,14.49
2022-11-12T16:37:55.410Z,14.42
2022-11-12T16:40:24.564Z,14.35
2022-11-12T16:42:50.994Z,14.30
2022-11-12T16:45:19.985Z,14.24
2022-11-12T16:47:49.217Z,14.20
2022-11-12T16:50:21.764Z,14.13
2022-11-12T16:52:49.026Z,14.11
2022-11-12T16:55:15.574Z,14.09
2022-11-12T16:57:42.959Z,14.04
2022-11-12T17:00:15.048Z,14.00
2022-11-12T17:02:46.135Z,13.99
2022-11-12T17:05:20.461Z,13.94
2022-11-12T17:07:47.734Z,13.92
2022-11-12T17:10:14.443Z,13.90
2022-11-12T17:12:40.791Z,13.87
2022-11-12T17:15:07.759Z,13.85
2022-11-12T17:17:34.157Z,13.84
2022-11-12T17:20:00.534Z,13.80
2022-11-12T17:22:27.160Z,13.78
2022-11-12T17:24:53.485Z,13.74
2022-11-12T17:27:19.804Z,13.71
2022-11-12T17:29:46.154Z,13.67
2022-11-12T17:32:12.505Z,13.63
2022-11-12T17:34:38.852Z,13.60
2022-11-12T17:37:05.194Z,13.57
2022-11-12T17:39:31.620Z,13.53
2022-11-12T17:41:58.017Z,13.50
2022-11-12T17:44:24.392Z,13.46
2022-11-12T17:46:50.727Z,13.43
2022-11-12T17:49:17.143Z,13.40
2022-11-12T17:51:43.517Z,13.37
2022-11-12T17:54:10.078Z,13.35
2022-11-12T17:56:37.234Z,13.32
2022-11-12T17:59:04.227Z,13.31
2022-11-12T18:01:32.476Z,13.28
2022-11-12T18:03:59.414Z,13.26
2022-11-12T18:06:29.058Z,13.25
2022-11-12T18:09:14.309Z,13.22
2022-11-12T18:11:58.800Z,13.20
2022-11-12T18:14:25.968Z,13.26
2022-11-12T18:16:52.348Z,13.26
2022-11-12T18:19:18.745Z,13.27
2022-11-12T18:21:45.132Z,13.28
2022-11-12T18:24:15.905Z,13.27
2022-11-12T18:26:44.028Z,13.29
2022-11-12T18:29:11.252Z,13.30
2022-11-12T18:31:37.791Z,13.32
2022-11-12T18:34:04.196Z,13.33
2022-11-12T18:36:30.540Z,13.33
2022-11-12T18:38:56.896Z,13.34
2022-11-12T18:41:26.729Z,13.36
2022-11-12T18:43:54.176Z,13.38
2022-11-12T18:46:20.843Z,13.42
2022-11-12T18:48:47.542Z,13.45
2022-11-12T18:51:16.445Z,13.48
2022-11-12T18:53:43.499Z,13.54
2022-11-12T18:56:18.715Z,13.55
2022-11-12T18:58:45.542Z,13.63
2022-11-12T19:01:15.727Z,13.67
2022-11-12T19:03:42.793Z,13.72
2022-11-12T19:06:12.254Z,13.76
2022-11-12T19:08:38.570Z,13.79
2022-11-12T19:11:07.973Z,13.80
2022-11-12T19:13:34.808Z,13.83
2022-11-12T19:16:11.662Z,13.81
2022-11-12T19:18:39.537Z,13.83
2022-11-12T19:21:11.052Z,13.81
2022-11-12T19:23:38.455Z,13.81
2022-11-12T19:26:07.051Z,13.79
2022-11-12T19:28:35.125Z,13.77
2022-11-12T19:31:12.618Z,13.74
2022-11-12T19:33:39.146Z,13.79
2022-11-12T19:36:07.143Z,13.80
2022-11-12T19:38:33.801Z,13.83
2022-11-12T19:41:08.658Z,13.85
2022-11-12T19:43:35.394Z,13.90
2022-11-12T19:46:02.510Z,13.95
2022-11-12T19:48:29.384Z,13.97
2022-11-12T19:51:01.039Z,13.98
2022-11-12T19:53:35.420Z,13.99
2022-11-12T19:56:03.487Z,14.04
2022-11-12T19:58:31.736Z,14.06
2022-11-12T20:01:10.134Z,14.04
2022-11-12T20:03:37.678Z,14.09
2022-11-12T20:06:07.112Z,14.10
2022-11-12T20:08:33.767Z,14.12
2022-11-12T20:11:00.965Z,14.13
2022-11-12T20:13:28.207Z,14.14
2022-11-12T20:15:54.879Z,14.14
2022-11-12T20:18:21.584Z,14.15
2022-11-12T20:20:57.524Z,14.13
2022-11-12T20:23:25.242Z,14.18
2022-11-12T20:25:52.901Z,14.18
2022-11-12T20:28:19.376Z,14.20
2022-11-12T20:30:45.724Z,14.22
2022-11-12T20:33:15.329Z,14.24
2022-11-12T20:35:41.975Z,14.26
2022-11-12T20:38:08.294Z,14.27
2022-11-12T20:40:34.653Z,14.28
2022-11-12T20:43:01.005Z,14.28
2022-11-12T20:45:27.336Z,14.28
2022-11-12T20:47:56.039Z,14.28
2022-11-12T20:50:22.710Z,14.29
2022-11-12T20:52:49.084Z,14.31
2022-11-12T20:55:15.559Z,14.30
2022-11-12T20:57:41.867Z,14.30
2022-11-12T21:00:13.569Z,14.28
2022-11-12T21:02:40.592Z,14.29
2022-11-12T21:05:07.277Z,14.27
2022-11-12T21:07:33.696Z,14.25
2022-11-12T21:10:00.090Z,14.26
2022-11-12T21:12:26.456Z,14.24
2022-11-12T21:14:52.829Z,14.21
2022-11-12T21:17:19.723Z,14.19
2022-11-12T21:19:46.176Z,14.18
2022-11-12T21:22:14.705Z,14.16
2022-11-12T21:24:41.069Z,14.14
2022-11-12T21:27:07.477Z,14.13
2022-11-12T21:29:34.606Z,14.10
2022-11-12T21:32:00.894Z,14.09
2022-11-12T21:34:27.250Z,14.08
2022-11-12T21:36:53.657Z,14.07
2022-11-12T21:39:20.061Z,14.05
2022-11-12T21:41:46.361Z,14.05
2022-11-12T21:44:12.673Z,14.04
2022-11-12T21:46:40.320Z,14.03
2022-11-12T21:49:06.778Z,14.02
2022-11-12T21:51:33.677Z,14.00
2022-11-12T21:54:05.645Z,13.97
2022-11-12T21:56:34.101Z,13.99
2022-11-12T21:59:01.243Z,13.97
2022-11-12T22:01:50.434Z,13.92
2022-11-12T22:04:18.422Z,13.96
2022-11-12T22:06:45.074Z,13.95
2022-11-12T22:09:11.610Z,13.96
2022-11-12T22:11:38.142Z,13.92
2022-11-12T22:14:04.623Z,13.92
2022-11-12T22:16:31.094Z,13.91
2022-11-12T22:18:59.508Z,13.91
2022-11-12T22:21:36.817Z,13.90
2022-11-12T22:24:05.575Z,13.92
2022-11-12T22:26:31.935Z,13.92
2022-11-12T22:28:59.175Z,13.93
2022-11-12T22:31:31.692Z,13.91
2022-11-12T22:34:00.035Z,13.93
2022-11-12T22:36:29.249Z,13.93
2022-11-12T22:38:56.101Z,13.94
2022-11-12T22:41:22.532Z,13.94
2022-11-12T22:43:50.933Z,13.94
2022-11-12T22:46:22.793Z,13.92
2022-11-12T22:48:49.772Z,13.93
2022-11-12T22:51:18.495Z,13.93
2022-11-12T22:53:45.297Z,13.94
2022-11-12T22:56:14.989Z,13.92
2022-11-12T22:58:43.566Z,13.91
2022-11-12T23:01:21.496Z,13.89
2022-11-12T23:03:49.625Z,13.91
2022-11-12T23:06:16.744Z,13.90
2022-11-12T23:08:43.290Z,13.88
2022-11-12T23:11:12.767Z,13.86
2022-11-12T23:13:39.550Z,13.86
2022-11-12T23:16:13.239Z,13.83
2022-11-12T23:18:39.711Z,13.85
2022-11-12T23:21:09.506Z,13.83
2022-11-12T23:23:36.678Z,13.85
2022-11-12T23:26:09.572Z,13.83
2022-11-12T23:28:36.314Z,13.85
2022-11-12T23:31:11.250Z,13.83
2022-11-12T23:33:38.046Z,13.85
2022-11-12T23:36:09.167Z,13.83
2022-11-12T23:38:35.615Z,13.84
2022-11-12T23:41:03.280Z,13.84
2022-11-12T23:43:30.203Z,13.83
2022-11-12T23:45:56.996Z,13.84
2022-11-12T23:48:23.504Z,13.83
2022-11-12T23:50:51.644Z,13.85
2022-11-12T23:53:18.320Z,13.84
2022-11-12T23:55:44.882Z,13.85
2022-11-12T23:58:11.281Z,13.86
